Sunday, November 19, 2017, 2:11 PM GMT
Back to Local

CYOW, Ottawa Int'L. Ont.

Location: , , Canada Lat: 45.317
Local Time: 2:11 PM GMT (14:11 GMT) Lon: -75.667
Time Zone: GMT Elev: 380 ft

Show me the last for .
Show Coded

Time T Td Feel RH Dir Speed Gust Alt SLP Vis Weather Sky Remarks
2017-11-19 13:48 28 25 13 86 300° 20 30 29.29 29.31 2 -SN SCT010 OVC020 None
2017-11-19 13:34 28 25 13 86 290° 20 28 29.28 29.30 1 -SN OVC010 Pressure rising rapidly
2017-11-19 13:25 28 27 12 92 300° 21 31 29.27 29.29 0 -SN OVC008 Pressure rising rapidly
2017-11-19 13:00 28 27 14 92 300° 24 - 29.24 29.26 0 SN VV005 None
2017-11-19 12:52 28 27 12 92 300° 17 31 29.24 29.26 0 -SN OVC006 Pressure rising rapidly
2017-11-19 12:41 28 27 15 92 300° 22 - 29.23 29.25 0 SN VV005 Pressure rising rapidly
2017-11-19 12:00 30 28 18 92 310° 18 - 29.19 29.21 0 -SN OVC008 Pressure rising rapidly
2017-11-19 11:18 30 28 17 92 320° 17 23 29.15 29.17 1 -SN OVC008 Pressure rising rapidly
2017-11-19 11:00 30 28 18 92 320° 18 - 29.13 29.15 1 -SN BR OVC006 None
2017-11-19 10:47 30 28 19 92 320° 16 - 29.14 29.16 1 -SN BR OVC008 None
2017-11-19 10:00 30 28 18 92 330° 17 - 29.14 29.15 5 -SN BR BKN006 OVC021 None
2017-11-19 09:00 32 30 23 92 320° 12 - 29.14 29.16 3 -SN BR OVC006 None
2017-11-19 08:44 32 30 23 92 330° 13 - 29.14 29.15 3 -SN BR OVC005 None
2017-11-19 08:19 32 30 24 92 340° 10 - 29.13 29.15 4 -FZRA -SN BR OVC003 None
2017-11-19 08:00 32 30 24 92 360° 10 - 29.14 29.16 5 -FZRA -PL BR OVC003 None
2017-11-19 07:00 32 30 19 92 40° 14 22 29.15 29.17 4 -FZRA BR OVC003 None
2017-11-19 06:00 30 30 19 100 50° 15 - 29.16 29.18 4 -FZRA BR OVC003 None
2017-11-19 05:00 30 28 19 92 50° 15 - 29.21 29.23 4 -FZRA BR OVC004 None
2017-11-19 04:45 30 28 18 92 50° 17 - 29.20 29.22 4 -FZRA BR OVC004 Pressure falling rapidly
2017-11-19 04:00 30 28 21 92 50° 10 - 29.27 29.28 3 -FZRA BR OVC006 None
2017-11-19 03:32 30 28 22 92 50° 9 - 29.28 29.30 4 -FZRA BR BKN006 OVC014 Pressure falling rapidly
2017-11-19 03:16 30 28 21 92 50° 10 - 29.29 29.31 4 -FZRA BR FEW007 OVC014 Pressure falling rapidly
2017-11-19 03:00 30 28 22 92 70° 9 - 29.31 29.33 4 -FZRA BR OVC014 Pressure rising rapidly
2017-11-19 02:00 28 27 16 92 50° 12 18 29.33 29.35 5 -FZRA BR OVC012 None
2017-11-19 01:50 28 25 19 86 60° 10 - 29.34 29.36 5 -FZRA BR OVC012 Pressure falling rapidly
2017-11-19 01:31 28 25 18 86 70° 12 - 29.36 29.38 7 -FZRA -SN OVC014 None
2017-11-19 01:00 28 23 18 79 60° 13 - 29.37 29.39 15 -SN OVC018 Pressure falling rapidly
2017-11-19 00:39 28 23 18 79 40° 12 - 29.40 29.42 15 -SN OVC020 None
2017-11-19 00:00 28 21 20 74 70° 9 - 29.43 29.45 15 OVC023 None
2017-11-18 23:00 28 21 18 74 70° 12 - 29.46 29.48 15 OVC027 None
2017-11-18 22:00 30 21 21 68 60° 12 - 29.47 29.49 15 OVC026 None
2017-11-18 21:00 30 21 20 68 60° 13 - 29.49 29.51 15 OVC027 None
2017-11-18 20:00 30 23 22 74 70° 9 - 29.53 29.55 15 FEW010 OVC030 None
2017-11-18 19:00 30 23 23 74 70° 8 - 29.55 29.57 15 OVC037 None
2017-11-18 18:15 30 23 21 74 80° 10 - 29.54 29.56 15 OVC035 Pressure falling rapidly
2017-11-18 18:00 30 23 20 74 70° 13 - 29.55 29.57 15 -FZRA OVC036 Pressure falling rapidly
2017-11-18 17:54 28 23 16 79 70° 10 17 29.55 29.58 15 -FZRA OVC034 Pressure falling rapidly
2017-11-18 17:32 28 25 19 86 70° 10 - 29.58 29.60 15 OVC033 Pressure falling rapidly
2017-11-18 17:00 28 25 16 86 90° 9 17 29.61 29.63 15 -FZRA OVC033 None
2017-11-18 16:40 28 23 18 79 80° 12 - 29.62 29.64 10 -FZRA -PL OVC040 Pressure falling rapidly
2017-11-18 16:26 28 23 20 79 60° 9 - 29.63 29.66 5 -PLSN OVC040 Pressure falling rapidly
2017-11-18 16:00 28 23 16 79 70° 13 18 29.65 29.67 10 -FZRA -PL OVC045 None
2017-11-18 15:47 28 21 18 74 70° 13 - 29.66 29.68 15 -FZRA -PL OVC070 None
2017-11-18 15:00 28 19 18 68 60° 12 - 29.68 29.70 15 OVC073 Pressure falling rapidly

Support USWX by starting your Amazon purchase here.